National Weather Service Raw Text Product

Displaying AFOS PIL: TAFMCW Received: 2017-08-13 11:32 UTC


555 
FTUS43 KDMX 131132
TAFMCW
TAF
KMCW 131132Z 1312/1412 14006KT P6SM VCSH SCT070 BKN120
     FM131600 16009G16KT P6SM BKN070
     FM140200 13006KT P6SM VCTS BKN100CB
     FM140600 15007KT P6SM BKN100=